sensor_id;sensor_type;location;lat;lon;timestamp;temperature;humidity
5210;DHT22;2624;48.048;11.706;2023-04-24T00:04:19;11.50;99.90
5210;DHT22;2624;48.048;11.706;2023-04-24T00:09:22;11.60;99.90
5210;DHT22;2624;48.048;11.706;2023-04-24T00:14:24;11.60;99.90
5210;DHT22;2624;48.048;11.706;2023-04-24T00:19:26;11.60;99.90
5210;DHT22;2624;48.048;11.706;2023-04-24T00:24:29;11.40;99.90
5210;DHT22;2624;48.048;11.706;2023-04-24T00:29:31;11.20;99.90
5210;DHT22;2624;48.048;11.706;2023-04-24T00:34:33;11.30;99.90
5210;DHT22;2624;48.048;11.706;2023-04-24T00:39:36;11.20;99.90
5210;DHT22;2624;48.048;11.706;2023-04-24T00:44:38;11.30;99.90
5210;DHT22;2624;48.048;11.706;2023-04-24T00:49:40;11.40;99.90
5210;DHT22;2624;48.048;11.706;2023-04-24T00:54:43;11.50;99.90
5210;DHT22;2624;48.048;11.706;2023-04-24T00:59:46;11.40;99.90
5210;DHT22;2624;48.048;11.706;2023-04-24T01:04:49;11.40;99.90
5210;DHT22;2624;48.048;11.706;2023-04-24T01:09:52;11.30;99.90
5210;DHT22;2624;48.048;11.706;2023-04-24T01:14:54;11.30;99.90
5210;DHT22;2624;48.048;11.706;2023-04-24T01:19:57;11.40;99.90
5210;DHT22;2624;48.048;11.706;2023-04-24T01:25:02;11.40;99.90
5210;DHT22;2624;48.048;11.706;2023-04-24T01:30:05;11.40;99.90
5210;DHT22;2624;48.048;11.706;2023-04-24T01:35:08;11.30;99.90
5210;DHT22;2624;48.048;11.706;2023-04-24T01:40:11;11.00;99.90
5210;DHT22;2624;48.048;11.706;2023-04-24T01:45:13;10.90;99.90
5210;DHT22;2624;48.048;11.706;2023-04-24T01:50:15;10.80;99.90
5210;DHT22;2624;48.048;11.706;2023-04-24T01:55:18;10.80;99.90
5210;DHT22;2624;48.048;11.706;2023-04-24T02:00:20;10.80;99.90
5210;DHT22;2624;48.048;11.706;2023-04-24T02:05:22;11.00;99.90
5210;DHT22;2624;48.048;11.706;2023-04-24T02:10:25;10.80;99.90
5210;DHT22;2624;48.048;11.706;2023-04-24T02:15:27;10.80;99.90
5210;DHT22;2624;48.048;11.706;2023-04-24T02:20:28;10.80;99.90
5210;DHT22;2624;48.048;11.706;2023-04-24T02:25:32;10.70;99.90
5210;DHT22;2624;48.048;11.706;2023-04-24T02:30:34;10.90;99.90
5210;DHT22;2624;48.048;11.706;2023-04-24T02:35:36;10.80;99.90
5210;DHT22;2624;48.048;11.706;2023-04-24T02:40:39;10.70;99.90
5210;DHT22;2624;48.048;11.706;2023-04-24T02:45:41;10.70;99.90
5210;DHT22;2624;48.048;11.706;2023-04-24T02:50:43;10.80;99.90
5210;DHT22;2624;48.048;11.706;2023-04-24T02:55:46;10.50;99.90
5210;DHT22;2624;48.048;11.706;2023-04-24T03:00:48;10.60;99.90
5210;DHT22;2624;48.048;11.706;2023-04-24T03:05:50;10.50;99.90
5210;DHT22;2624;48.048;11.706;2023-04-24T03:10:53;10.50;99.90
5210;DHT22;2624;48.048;11.706;2023-04-24T03:15:55;10.50;99.90
5210;DHT22;2624;48.048;11.706;2023-04-24T03:20:57;10.40;99.90
5210;DHT22;2624;48.048;11.706;2023-04-24T03:26:00;10.30;99.90
5210;DHT22;2624;48.048;11.706;2023-04-24T03:31:02;10.00;99.90
5210;DHT22;2624;48.048;11.706;2023-04-24T03:36:04;10.10;99.90
5210;DHT22;2624;48.048;11.706;2023-04-24T03:41:08;10.40;99.90
5210;DHT22;2624;48.048;11.706;2023-04-24T03:46:10;10.30;99.90
5210;DHT22;2624;48.048;11.706;2023-04-24T03:51:12;10.20;99.90
5210;DHT22;2624;48.048;11.706;2023-04-24T03:56:15;10.30;99.90
5210;DHT22;2624;48.048;11.706;2023-04-24T04:01:16;10.10;99.90
5210;DHT22;2624;48.048;11.706;2023-04-24T04:06:19;10.10;99.90
5210;DHT22;2624;48.048;11.706;2023-04-24T04:11:23;10.10;99.90
5210;DHT22;2624;48.048;11.706;2023-04-24T04:16:25;10.00;99.90
5210;DHT22;2624;48.048;11.706;2023-04-24T04:21:27;9.90;99.90
5210;DHT22;2624;48.048;11.706;2023-04-24T04:26:30;9.90;99.90
5210;DHT22;2624;48.048;11.706;2023-04-24T04:31:33;9.80;99.90
5210;DHT22;2624;48.048;11.706;2023-04-24T04:36:34;9.60;99.90
5210;DHT22;2624;48.048;11.706;2023-04-24T04:41:38;9.80;99.90
5210;DHT22;2624;48.048;11.706;2023-04-24T04:46:40;9.80;99.90
5210;DHT22;2624;48.048;11.706;2023-04-24T04:51:42;10.10;99.90
5210;DHT22;2624;48.048;11.706;2023-04-24T04:56:45;9.80;99.90
5210;DHT22;2624;48.048;11.706;2023-04-24T05:01:47;9.70;99.90
5210;DHT22;2624;48.048;11.706;2023-04-24T05:06:49;9.70;99.90
5210;DHT22;2624;48.048;11.706;2023-04-24T05:11:53;9.70;99.90
5210;DHT22;2624;48.048;11.706;2023-04-24T05:16:55;9.80;99.90
5210;DHT22;2624;48.048;11.706;2023-04-24T05:21:57;9.70;99.90
5210;DHT22;2624;48.048;11.706;2023-04-24T05:27:00;9.60;99.90
5210;DHT22;2624;48.048;11.706;2023-04-24T05:32:02;10.00;99.90
5210;DHT22;2624;48.048;11.706;2023-04-24T05:37:04;9.70;99.90
5210;DHT22;2624;48.048;11.706;2023-04-24T05:42:10;9.80;99.90
5210;DHT22;2624;48.048;11.706;2023-04-24T05:47:12;9.80;99.90
5210;DHT22;2624;48.048;11.706;2023-04-24T05:52:14;9.80;99.90
5210;DHT22;2624;48.048;11.706;2023-04-24T05:57:17;9.80;99.90
5210;DHT22;2624;48.048;11.706;2023-04-24T06:02:18;9.70;99.90
5210;DHT22;2624;48.048;11.706;2023-04-24T06:07:20;9.70;99.90
5210;DHT22;2624;48.048;11.706;2023-04-24T06:12:23;9.70;99.90
5210;DHT22;2624;48.048;11.706;2023-04-24T06:17:26;9.80;99.90
5210;DHT22;2624;48.048;11.706;2023-04-24T06:22:28;9.70;99.90
5210;DHT22;2624;48.048;11.706;2023-04-24T06:27:31;9.80;99.90
5210;DHT22;2624;48.048;11.706;2023-04-24T06:32:33;9.90;99.90
5210;DHT22;2624;48.048;11.706;2023-04-24T06:37:35;9.70;99.90
5210;DHT22;2624;48.048;11.706;2023-04-24T06:42:38;9.90;99.90
5210;DHT22;2624;48.048;11.706;2023-04-24T06:47:40;9.80;99.90
5210;DHT22;2624;48.048;11.706;2023-04-24T06:52:41;9.90;99.90
5210;DHT22;2624;48.048;11.706;2023-04-24T06:57:44;9.90;99.90
5210;DHT22;2624;48.048;11.706;2023-04-24T07:02:46;10.00;99.90
5210;DHT22;2624;48.048;11.706;2023-04-24T07:07:48;10.10;99.90
5210;DHT22;2624;48.048;11.706;2023-04-24T07:12:53;10.20;99.90
5210;DHT22;2624;48.048;11.706;2023-04-24T07:17:55;10.10;99.90
5210;DHT22;2624;48.048;11.706;2023-04-24T07:22:56;10.20;99.90
5210;DHT22;2624;48.048;11.706;2023-04-24T07:28:00;10.20;99.90
5210;DHT22;2624;48.048;11.706;2023-04-24T07:33:01;10.30;99.90
5210;DHT22;2624;48.048;11.706;2023-04-24T07:38:03;10.40;99.90
5210;DHT22;2624;48.048;11.706;2023-04-24T07:43:06;10.40;99.90
5210;DHT22;2624;48.048;11.706;2023-04-24T07:48:08;10.40;99.90
5210;DHT22;2624;48.048;11.706;2023-04-24T07:53:10;10.40;99.90
5210;DHT22;2624;48.048;11.706;2023-04-24T07:58:13;10.40;99.90
5210;DHT22;2624;48.048;11.706;2023-04-24T08:03:15;10.40;99.90
5210;DHT22;2624;48.048;11.706;2023-04-24T08:08:21;10.40;99.90
5210;DHT22;2624;48.048;11.706;2023-04-24T08:13:24;10.50;99.90
5210;DHT22;2624;48.048;11.706;2023-04-24T08:18:26;10.50;99.90
5210;DHT22;2624;48.048;11.706;2023-04-24T08:23:28;10.50;99.90
5210;DHT22;2624;48.048;11.706;2023-04-24T08:28:32;10.40;99.90
5210;DHT22;2624;48.048;11.706;2023-04-24T08:33:34;10.50;99.90
5210;DHT22;2624;48.048;11.706;2023-04-24T08:38:35;10.40;99.90
5210;DHT22;2624;48.048;11.706;2023-04-24T08:43:38;10.50;99.90
5210;DHT22;2624;48.048;11.706;2023-04-24T08:48:41;10.50;99.90
5210;DHT22;2624;48.048;11.706;2023-04-24T08:53:43;10.50;99.90
5210;DHT22;2624;48.048;11.706;2023-04-24T08:58:46;10.40;99.90
5210;DHT22;2624;48.048;11.706;2023-04-24T09:03:49;10.50;99.90
5210;DHT22;2624;48.048;11.706;2023-04-24T09:08:51;10.60;99.90
5210;DHT22;2624;48.048;11.706;2023-04-24T09:13:58;10.60;99.90
5210;DHT22;2624;48.048;11.706;2023-04-24T09:19:00;10.50;99.90
5210;DHT22;2624;48.048;11.706;2023-04-24T09:24:04;10.50;99.90
5210;DHT22;2624;48.048;11.706;2023-04-24T09:29:08;10.60;99.90
5210;DHT22;2624;48.048;11.706;2023-04-24T09:34:21;10.60;99.90
5210;DHT22;2624;48.048;11.706;2023-04-24T09:39:24;10.50;99.90
5210;DHT22;2624;48.048;11.706;2023-04-24T09:44:28;10.70;99.90
5210;DHT22;2624;48.048;11.706;2023-04-24T09:49:30;10.80;99.90
5210;DHT22;2624;48.048;11.706;2023-04-24T09:54:33;10.90;99.90
5210;DHT22;2624;48.048;11.706;2023-04-24T09:59:42;10.90;99.90
5210;DHT22;2624;48.048;11.706;2023-04-24T10:04:54;10.90;99.90
5210;DHT22;2624;48.048;11.706;2023-04-24T10:09:56;11.00;99.90
5210;DHT22;2624;48.048;11.706;2023-04-24T10:15:00;11.00;99.90
5210;DHT22;2624;48.048;11.706;2023-04-24T10:20:04;11.00;99.90
5210;DHT22;2624;48.048;11.706;2023-04-24T10:25:07;11.10;99.90
5210;DHT22;2624;48.048;11.706;2023-04-24T10:30:12;11.10;99.90
5210;DHT22;2624;48.048;11.706;2023-04-24T10:35:15;11.20;99.90
5210;DHT22;2624;48.048;11.706;2023-04-24T10:40:18;11.30;99.90
5210;DHT22;2624;48.048;11.706;2023-04-24T10:45:22;11.30;99.90
5210;DHT22;2624;48.048;11.706;2023-04-24T10:50:26;11.40;99.90
5210;DHT22;2624;48.048;11.706;2023-04-24T10:55:42;11.40;99.90
5210;DHT22;2624;48.048;11.706;2023-04-24T11:00:55;11.40;99.90
5210;DHT22;2624;48.048;11.706;2023-04-24T11:06:00;11.30;99.90
5210;DHT22;2624;48.048;11.706;2023-04-24T11:11:07;11.20;99.90
5210;DHT22;2624;48.048;11.706;2023-04-24T11:16:15;11.10;99.90
5210;DHT22;2624;48.048;11.706;2023-04-24T11:21:17;11.10;99.90
5210;DHT22;2624;48.048;11.706;2023-04-24T11:26:22;11.10;99.90
5210;DHT22;2624;48.048;11.706;2023-04-24T11:31:37;11.20;99.90
5210;DHT22;2624;48.048;11.706;2023-04-24T11:36:39;11.40;99.90
5210;DHT22;2624;48.048;11.706;2023-04-24T11:41:40;11.40;99.90
5210;DHT22;2624;48.048;11.706;2023-04-24T11:46:44;11.40;99.90
5210;DHT22;2624;48.048;11.706;2023-04-24T11:51:46;11.50;99.90
5210;DHT22;2624;48.048;11.706;2023-04-24T11:56:48;11.70;99.90
5210;DHT22;2624;48.048;11.706;2023-04-24T12:01:52;11.80;99.90
5210;DHT22;2624;48.048;11.706;2023-04-24T12:07:00;11.90;99.90
5210;DHT22;2624;48.048;11.706;2023-04-24T12:12:02;11.80;99.90
5210;DHT22;2624;48.048;11.706;2023-04-24T12:17:05;11.80;99.90
5210;DHT22;2624;48.048;11.706;2023-04-24T12:22:07;11.80;99.90
5210;DHT22;2624;48.048;11.706;2023-04-24T12:27:19;11.60;99.90
5210;DHT22;2624;48.048;11.706;2023-04-24T12:32:22;11.30;99.90
5210;DHT22;2624;48.048;11.706;2023-04-24T12:37:26;11.20;99.90
5210;DHT22;2624;48.048;11.706;2023-04-24T12:42:29;11.30;99.90
5210;DHT22;2624;48.048;11.706;2023-04-24T12:47:34;11.20;99.90
5210;DHT22;2624;48.048;11.706;2023-04-24T12:52:37;11.20;99.90
5210;DHT22;2624;48.048;11.706;2023-04-24T12:57:40;11.00;99.90
5210;DHT22;2624;48.048;11.706;2023-04-24T13:02:43;10.90;99.90
5210;DHT22;2624;48.048;11.706;2023-04-24T13:07:45;10.80;99.90
5210;DHT22;2624;48.048;11.706;2023-04-24T13:12:46;10.70;99.90
5210;DHT22;2624;48.048;11.706;2023-04-24T13:17:50;10.50;99.90
5210;DHT22;2624;48.048;11.706;2023-04-24T13:22:52;10.20;99.90
5210;DHT22;2624;48.048;11.706;2023-04-24T13:27:54;10.30;99.90
5210;DHT22;2624;48.048;11.706;2023-04-24T13:32:57;10.60;99.90
5210;DHT22;2624;48.048;11.706;2023-04-24T13:37:59;10.70;99.90
5210;DHT22;2624;48.048;11.706;2023-04-24T13:43:01;10.80;99.90
5210;DHT22;2624;48.048;11.706;2023-04-24T13:48:04;10.90;99.90
5210;DHT22;2624;48.048;11.706;2023-04-24T13:53:06;10.80;99.90
5210;DHT22;2624;48.048;11.706;2023-04-24T13:58:08;10.80;99.90
5210;DHT22;2624;48.048;11.706;2023-04-24T14:03:12;10.70;99.90
5210;DHT22;2624;48.048;11.706;2023-04-24T14:08:14;10.80;99.90
5210;DHT22;2624;48.048;11.706;2023-04-24T14:13:16;10.70;99.90
5210;DHT22;2624;48.048;11.706;2023-04-24T14:18:20;10.70;99.90
5210;DHT22;2624;48.048;11.706;2023-04-24T14:23:22;10.70;99.90
5210;DHT22;2624;48.048;11.706;2023-04-24T14:28:23;10.70;99.90
5210;DHT22;2624;48.048;11.706;2023-04-24T14:33:27;10.80;99.90
5210;DHT22;2624;48.048;11.706;2023-04-24T14:38:29;11.00;99.90
5210;DHT22;2624;48.048;11.706;2023-04-24T14:43:30;11.00;99.90
5210;DHT22;2624;48.048;11.706;2023-04-24T14:48:34;11.00;99.90
5210;DHT22;2624;48.048;11.706;2023-04-24T14:53:36;11.00;99.90
5210;DHT22;2624;48.048;11.706;2023-04-24T14:58:37;11.00;99.90
5210;DHT22;2624;48.048;11.706;2023-04-24T15:03:41;11.10;99.90
5210;DHT22;2624;48.048;11.706;2023-04-24T15:08:43;11.10;99.90
5210;DHT22;2624;48.048;11.706;2023-04-24T15:13:45;11.20;99.90
5210;DHT22;2624;48.048;11.706;2023-04-24T15:18:48;11.20;99.90
5210;DHT22;2624;48.048;11.706;2023-04-24T15:23:50;11.20;99.90
5210;DHT22;2624;48.048;11.706;2023-04-24T15:28:52;11.20;99.90
5210;DHT22;2624;48.048;11.706;2023-04-24T15:33:55;11.20;99.90
5210;DHT22;2624;48.048;11.706;2023-04-24T15:38:56;11.20;99.90
5210;DHT22;2624;48.048;11.706;2023-04-24T15:43:58;11.20;99.90
5210;DHT22;2624;48.048;11.706;2023-04-24T15:49:01;11.20;99.90
5210;DHT22;2624;48.048;11.706;2023-04-24T15:54:03;11.20;99.90
5210;DHT22;2624;48.048;11.706;2023-04-24T15:59:05;11.20;99.90
5210;DHT22;2624;48.048;11.706;2023-04-24T16:04:08;11.20;99.90
5210;DHT22;2624;48.048;11.706;2023-04-24T16:09:10;11.20;99.90
5210;DHT22;2624;48.048;11.706;2023-04-24T16:14:12;11.20;99.90
5210;DHT22;2624;48.048;11.706;2023-04-24T16:19:16;11.20;99.90
5210;DHT22;2624;48.048;11.706;2023-04-24T16:24:17;11.20;99.90
5210;DHT22;2624;48.048;11.706;2023-04-24T16:29:19;11.20;99.90
5210;DHT22;2624;48.048;11.706;2023-04-24T16:34:23;11.30;99.90
5210;DHT22;2624;48.048;11.706;2023-04-24T16:39:24;11.30;99.90
5210;DHT22;2624;48.048;11.706;2023-04-24T16:44:27;11.30;99.90
5210;DHT22;2624;48.048;11.706;2023-04-24T16:49:30;11.20;99.90
5210;DHT22;2624;48.048;11.706;2023-04-24T16:54:32;11.20;99.90
5210;DHT22;2624;48.048;11.706;2023-04-24T16:59:35;11.20;99.90
5210;DHT22;2624;48.048;11.706;2023-04-24T17:04:38;11.10;99.90
5210;DHT22;2624;48.048;11.706;2023-04-24T17:09:40;11.10;99.90
5210;DHT22;2624;48.048;11.706;2023-04-24T17:14:42;11.10;99.90
5210;DHT22;2624;48.048;11.706;2023-04-24T17:19:45;11.10;99.90
5210;DHT22;2624;48.048;11.706;2023-04-24T17:24:46;11.20;99.90
5210;DHT22;2624;48.048;11.706;2023-04-24T17:29:48;11.10;99.90
5210;DHT22;2624;48.048;11.706;2023-04-24T17:34:52;11.10;99.90
5210;DHT22;2624;48.048;11.706;2023-04-24T17:39:54;11.00;99.90
5210;DHT22;2624;48.048;11.706;2023-04-24T17:44:55;11.00;99.90
5210;DHT22;2624;48.048;11.706;2023-04-24T17:49:59;11.00;99.90
5210;DHT22;2624;48.048;11.706;2023-04-24T17:55:00;11.00;99.90
5210;DHT22;2624;48.048;11.706;2023-04-24T18:00:03;11.00;99.90
5210;DHT22;2624;48.048;11.706;2023-04-24T18:05:06;10.90;99.90
5210;DHT22;2624;48.048;11.706;2023-04-24T18:10:08;10.90;99.90
5210;DHT22;2624;48.048;11.706;2023-04-24T18:15:10;10.90;99.90
5210;DHT22;2624;48.048;11.706;2023-04-24T18:20:15;10.70;99.90
5210;DHT22;2624;48.048;11.706;2023-04-24T18:25:17;10.70;99.90
5210;DHT22;2624;48.048;11.706;2023-04-24T18:30:25;10.70;99.90
5210;DHT22;2624;48.048;11.706;2023-04-24T18:35:29;10.60;99.90
5210;DHT22;2624;48.048;11.706;2023-04-24T18:40:30;10.60;99.90
5210;DHT22;2624;48.048;11.706;2023-04-24T18:45:32;10.60;99.90
5210;DHT22;2624;48.048;11.706;2023-04-24T18:50:35;10.40;99.90
5210;DHT22;2624;48.048;11.706;2023-04-24T18:55:38;10.00;99.90
5210;DHT22;2624;48.048;11.706;2023-04-24T19:00:40;9.80;99.90
5210;DHT22;2624;48.048;11.706;2023-04-24T19:05:43;9.70;99.90
5210;DHT22;2624;48.048;11.706;2023-04-24T19:10:45;9.60;99.90
5210;DHT22;2624;48.048;11.706;2023-04-24T19:15:46;9.60;99.90
5210;DHT22;2624;48.048;11.706;2023-04-24T19:20:50;9.70;99.90
5210;DHT22;2624;48.048;11.706;2023-04-24T19:25:52;9.60;99.90
5210;DHT22;2624;48.048;11.706;2023-04-24T19:30:54;9.90;99.90
5210;DHT22;2624;48.048;11.706;2023-04-24T19:35:59;9.90;99.90
5210;DHT22;2624;48.048;11.706;2023-04-24T19:41:01;10.00;99.90
5210;DHT22;2624;48.048;11.706;2023-04-24T19:46:03;10.10;99.90
5210;DHT22;2624;48.048;11.706;2023-04-24T19:51:06;9.90;99.90
5210;DHT22;2624;48.048;11.706;2023-04-24T19:56:08;9.70;99.90
5210;DHT22;2624;48.048;11.706;2023-04-24T20:01:10;9.60;99.90
5210;DHT22;2624;48.048;11.706;2023-04-24T20:06:13;9.50;99.90
5210;DHT22;2624;48.048;11.706;2023-04-24T20:11:14;9.60;99.90
5210;DHT22;2624;48.048;11.706;2023-04-24T20:16:16;9.80;99.90
5210;DHT22;2624;48.048;11.706;2023-04-24T20:21:19;10.00;99.90
5210;DHT22;2624;48.048;11.706;2023-04-24T20:26:21;9.90;99.90
5210;DHT22;2624;48.048;11.706;2023-04-24T20:31:23;9.80;99.90
5210;DHT22;2624;48.048;11.706;2023-04-24T20:36:26;9.50;99.90
5210;DHT22;2624;48.048;11.706;2023-04-24T20:41:28;9.30;99.90
5210;DHT22;2624;48.048;11.706;2023-04-24T20:46:31;9.20;99.90
5210;DHT22;2624;48.048;11.706;2023-04-24T20:51:34;9.20;99.90
5210;DHT22;2624;48.048;11.706;2023-04-24T20:56:36;9.30;99.90
5210;DHT22;2624;48.048;11.706;2023-04-24T21:01:38;9.20;99.90
5210;DHT22;2624;48.048;11.706;2023-04-24T21:06:41;9.10;99.90
5210;DHT22;2624;48.048;11.706;2023-04-24T21:11:43;9.00;99.90
5210;DHT22;2624;48.048;11.706;2023-04-24T21:16:45;9.10;99.90
5210;DHT22;2624;48.048;11.706;2023-04-24T21:21:48;9.00;99.90
5210;DHT22;2624;48.048;11.706;2023-04-24T21:26:50;9.10;99.90
5210;DHT22;2624;48.048;11.706;2023-04-24T21:31:51;9.10;99.90
5210;DHT22;2624;48.048;11.706;2023-04-24T21:36:54;9.10;99.90
5210;DHT22;2624;48.048;11.706;2023-04-24T21:41:56;9.20;99.90
5210;DHT22;2624;48.048;11.706;2023-04-24T21:46:58;9.20;99.90
5210;DHT22;2624;48.048;11.706;2023-04-24T21:52:01;9.20;99.90
5210;DHT22;2624;48.048;11.706;2023-04-24T21:57:03;9.10;99.90
5210;DHT22;2624;48.048;11.706;2023-04-24T22:02:05;8.90;99.90
5210;DHT22;2624;48.048;11.706;2023-04-24T22:07:08;8.90;99.90
5210;DHT22;2624;48.048;11.706;2023-04-24T22:12:10;8.90;99.90
5210;DHT22;2624;48.048;11.706;2023-04-24T22:17:12;8.70;99.90
5210;DHT22;2624;48.048;11.706;2023-04-24T22:22:16;8.70;99.90
5210;DHT22;2624;48.048;11.706;2023-04-24T22:27:17;8.80;99.90
5210;DHT22;2624;48.048;11.706;2023-04-24T22:32:19;8.80;99.90
5210;DHT22;2624;48.048;11.706;2023-04-24T22:37:22;8.80;99.90
5210;DHT22;2624;48.048;11.706;2023-04-24T22:42:24;8.70;99.90
5210;DHT22;2624;48.048;11.706;2023-04-24T22:47:26;8.60;99.90
5210;DHT22;2624;48.048;11.706;2023-04-24T22:52:29;8.70;99.90
5210;DHT22;2624;48.048;11.706;2023-04-24T22:57:32;8.70;99.90
5210;DHT22;2624;48.048;11.706;2023-04-24T23:02:33;8.70;99.90
5210;DHT22;2624;48.048;11.706;2023-04-24T23:07:37;8.50;99.90
5210;DHT22;2624;48.048;11.706;2023-04-24T23:12:39;8.50;99.90
5210;DHT22;2624;48.048;11.706;2023-04-24T23:17:40;8.60;99.90
5210;DHT22;2624;48.048;11.706;2023-04-24T23:22:44;8.60;99.90
5210;DHT22;2624;48.048;11.706;2023-04-24T23:27:46;8.50;99.90
5210;DHT22;2624;48.048;11.706;2023-04-24T23:32:47;8.50;99.90
5210;DHT22;2624;48.048;11.706;2023-04-24T23:37:51;8.40;99.90
5210;DHT22;2624;48.048;11.706;2023-04-24T23:42:52;8.50;99.90
5210;DHT22;2624;48.048;11.706;2023-04-24T23:47:54;8.30;99.90
5210;DHT22;2624;48.048;11.706;2023-04-24T23:52:58;8.00;99.90
5210;DHT22;2624;48.048;11.706;2023-04-24T23:57:59;8.40;99.90
